• Join FlightAware (Why Join?)
  • Login
  • US Flag 
10:21PM EDT


 

Airport Tracker/Info


-or-


 

Live Flight TrackerFlight Track Log ✈ UAL4663 ✈ 18-Apr-2013 ✈ KEWR - KRDU

Flight Track Log - Related Links

Times and Time Zones

All times are in EDT time to prevent confusion due to time zone crossing. See the UAL4663 flight status page for this flight to view local times or setup timezone preferences in your user account.

Time Position Orientation Groundspeed Altitude Reporting Facility
EDT Latitude Longitude Course Direction KTS MPH feet Rate Location/Type
07:11PM 40.6500 -74.1764 180° South 164 189 1,500  Level New York Center
07:11PM 40.6333 -74.2000 227° Southwest 187 215 2,100 2,160 Climbing New York TRACON
07:12PM 40.5833 -74.2500 217° Southwest 229 264 4,600 1,920 Climbing New York TRACON
07:13PM 40.5333 -74.2667 194° South 223 257 6,000 660 Climbing New York TRACON
07:14PM 40.3056 -74.1528 159° South  Level FlightAware Approximate
07:14PM 40.4667 -74.2333 159° South 235 270 6,000  Level New York TRACON
07:15PM 40.2048 -74.1817 194° South  Level FlightAware Approximate
07:15PM 40.4167 -74.2167 166° South 231 266 6,000  Level New York TRACON
07:16PM 40.1048 -74.2167 180° South  Level FlightAware Approximate
07:16PM 40.3833 -74.1333 118° Southeast 268 308 6,800  Level New York TRACON
07:18PM 40.3261 -74.0597 136° Southeast 210 242 9,900 1,440 Climbing New York Center
07:19PM 40.2564 -74.0972 202° Southwest 224 258 10,600 1,020 Climbing New York Center
07:21PM 40.1039 -74.2381 215° Southwest 317 365 13,000 1,380 Climbing Washington Center
07:22PM 40.0419 -74.3042 219° Southwest 328 377 14,800 1,920 Climbing Washington Center
07:23PM 39.9781 -74.3786 222° Southwest 323 372 16,900 1,860 Climbing Washington Center
07:24PM 39.9164 -74.4444 219° Southwest 305 351 18,600 1,380 Climbing Washington Center
07:25PM 39.8525 -74.5131 220° Southwest 305 351 19,700 1,080 Climbing Washington Center
07:26PM 39.7822 -74.5925 221° Southwest 315 362 20,800 960 Climbing Washington Center
07:27PM 39.7100 -74.6692 219° Southwest 331 381 21,700 900 Climbing Washington Center
07:28PM 39.6333 -74.7508 219° Southwest 346 398 22,600 840 Climbing Washington Center
07:29PM 39.5569 -74.8378 221° Southwest 364 419 23,400 840 Climbing Washington Center
07:30PM 39.4742 -74.9247 219° Southwest 376 433 24,300 840 Climbing Washington Center
07:31PM 39.3911 -75.0142 220° Southwest 381 438 25,100 780 Climbing Washington Center
07:32PM 39.3103 -75.1033 220° Southwest 381 438 25,900 420 Climbing Washington Center
07:33PM 39.2317 -75.2031 225° Southwest 387 445 26,000  Climbing Washington Center
07:34PM 39.1506 -75.3106 226° Southwest 400 460 26,000  Level Washington Center
07:35PM 39.0675 -75.4153 224° Southwest 415 478 26,000  Level Washington Center
07:36PM 38.9842 -75.5222 225° Southwest 415 478 26,000  Level Washington Center
07:37PM 38.9008 -75.6342 226° Southwest 426 490 26,000  Level Washington Center
07:38PM 38.8486 -75.7756 245° Southwest 435 501 26,000  Level Washington Center
07:39PM 38.7983 -75.9139 245° Southwest 435 501 26,000 -60 Level Washington Center
07:40PM 38.7061 -76.0147 220° Southwest 435 501 25,900  Descending Washington Center
07:41PM 38.6100 -76.1044 216° Southwest 425 489 26,000  Climbing Washington Center
07:42PM 38.4947 -76.2072 215° Southwest 444 511 26,000  Level Washington Center
07:43PM 38.4006 -76.2992 217° Southwest 444 511 26,000  Level Washington Center
07:44PM 38.3042 -76.3828 214° Southwest 435 501 26,000  Level Washington Center
07:45PM 38.2178 -76.4931 225° Southwest 435 501 26,000  Level Washington Center
07:46PM 38.1397 -76.6081 229° Southwest 435 501 26,000  Level Washington Center
07:47PM 38.0472 -76.7019 219° Southwest 435 501 26,000  Level Washington Center
07:48PM 37.9381 -76.7686 206° Southwest 435 501 26,000  Level Washington Center
07:49PM 37.8269 -76.8328 205° Southwest 435 501 26,000 -540 Level Washington Center
07:50PM 37.7178 -76.8967 205° Southwest 435 501 25,000 -1,200 Descending Washington Center
07:51PM 37.6128 -76.9550 204° Southwest 429 494 23,600 -1,500 Descending Washington Center
07:52PM 37.5014 -77.0186 204° Southwest 429 494 22,100 -840 Descending Washington Center
07:53PM 37.4092 -77.0717 205° Southwest 418 481 22,000 -60 Descending Washington Center
07:54PM 37.2936 -77.1425 206° Southwest 418 481 22,000  Level Washington Center
07:55PM 37.2008 -77.2033 208° Southwest 418 481 22,000  Level Washington Center
07:56PM 37.0978 -77.2767 210° Southwest 423 487 22,000  Level Washington Center
07:57PM 37.0006 -77.3500 211° Southwest 423 487 22,000  Level Washington Center
07:58PM 36.8889 -77.4331 211° Southwest 423 487 22,000  Level Washington Center
07:59PM 36.7897 -77.5086 211° Southwest 423 487 22,000  Level Washington Center
08:00PM 36.6883 -77.5836 211° Southwest 428 493 22,000 -120 Level Washington Center
08:01PM 36.5847 -77.6561 209° Southwest 428 493 21,800 -1,140 Descending Washington Center
08:02PM 36.4958 -77.7392 217° Southwest 422 486 19,800 -1,980 Descending Washington Center
08:03PM 36.4358 -77.8200 227° Southwest 412 474 17,900 -2,340 Descending Washington Center
08:04PM 36.3503 -77.9336 227° Southwest 391 450 15,200 -2,280 Descending Washington Center
08:05PM 36.2711 -78.0344 226° Southwest 374 430 13,200 -1,860 Descending Washington Center
08:06PM 36.2344 -78.0872 229° Southwest 373 429 12,300 -1,800 Descending Washington Center
08:06PM 36.2086 -78.1200 226° Southwest 379 436 11,600 -1,560 Descending Washington Center
08:06PM 36.1722 -78.1675 227° Southwest 349 402 10,900 -1,320 Descending Washington Center
08:07PM 36.1589 -78.2006 243° Southwest 350 403 10,300 -1,500 Descending Washington Center
08:07PM 36.1389 -78.2592 247° West 276 318 9,400 -1,740 Descending Washington Center
08:08PM 36.1275 -78.2972 250° West 294 338 8,600 -1,740 Descending Washington Center
08:09PM 36.1075 -78.3506 245° Southwest 256 295 7,500 -1,620 Descending Washington Center
08:09PM 36.1028 -78.3736 256° West 275 316 7,000 -1,680 Descending Washington Center
08:10PM 36.0803 -78.4447 249° West 253 291 5,700 -1,620 Descending Washington Center
08:10PM 36.0758 -78.4625 253° West 265 305 5,400 -1,500 Descending Washington Center
08:11PM 36.0508 -78.5439 249° West 260 299 3,800 -1,320 Descending Washington Center
08:12PM 36.0283 -78.6097 247° West 252 290 3,000 -600 Descending Washington Center
08:13PM 35.9764 -78.6797 227° Southwest 247 284 2,600 -660 Descending Washington Center
08:14PM 35.9356 -78.7294 225° Southwest 233 268 1,600 -960 Descending Washington Center
08:15PM 35.9053 -78.7667 225° Southwest 194 223 800 -840 Descending Washington Center